Christian Radich — LJLM — position and weather

sailwx.info

Track history (hours):
 
Tides and Currents Weather Stations Pressure Air Temp Water Temp Dewpoint Dewpoint Depression Visibility Wind Speed Wind Dir Waves Ship Positions

Christian Radich (Norway)

Last reported at 2018-Dec-10 23:59 UTC. Time now 2018-Dec-11 00:08 UTC.
Position N 28°28' W 016°15'.

Length 63 m; draft 5 m.

Type: Sailing vessel. MMSI: 258373000.

Date/timePositionNaut miles runAvg speedWind from/ knotsBaromVisibWave heightAir tempDewpointWater temp
2018-Dec-10 23:59N 28°28' W 016°15'0 0.0
2018-Dec-10 23:29N 28°28' W 016°15'0 0.0
2018-Dec-10 23:00N 28°28' W 016°15'0 0.0
2018-Dec-10 22:30N 28°28' W 016°15'0 0.0
2018-Dec-10 22:00N 28°28' W 016°15'0 0.0
2018-Dec-10 21:28N 28°28' W 016°15'0 0.0
2018-Dec-10 20:58N 28°28' W 016°15'0 0.0
2018-Dec-10 20:28N 28°28' W 016°15'0 0.0
2018-Dec-10 19:59N 28°28' W 016°15'0 0.0
2018-Dec-10 19:29N 28°28' W 016°15'0 0.0
2018-Dec-10 18:59N 28°28' W 016°15'0 0.0
2018-Dec-10 18:30N 28°28' W 016°15'0 0.0
2018-Dec-10 18:00N 28°28' W 016°15'0 0.0
2018-Dec-10 17:30N 28°28' W 016°15'0 0.0
2018-Dec-10 16:58N 28°28' W 016°15'0 0.0
2018-Dec-10 16:28N 28°28' W 016°15'0 0.0
2018-Dec-10 15:58N 28°28' W 016°15'0 0.0
2018-Dec-10 15:29N 28°28' W 016°15'0 0.0
2018-Dec-10 14:59N 28°28' W 016°15'0 0.0
2018-Dec-10 14:29N 28°28' W 016°15'0 0.0
2018-Dec-10 14:00N 28°28' W 016°15'0 0.0
2018-Dec-10 13:30N 28°28' W 016°15'0 0.0
2018-Dec-10 13:00N 28°28' W 016°15'0 0.0
2018-Dec-10 12:28N 28°28' W 016°15'0 0.0
2018-Dec-10 11:58N 28°28' W 016°15'0 0.0
2018-Dec-10 11:28N 28°28' W 016°15'0 0.0
2018-Dec-10 10:59N 28°28' W 016°15'0 0.0
2018-Dec-10 10:29N 28°28' W 016°15'0 0.0
2018-Dec-10 09:59N 28°28' W 016°15'0 0.0
2018-Dec-10 09:30N 28°28' W 016°15'0 0.0
2018-Dec-10 09:00N 28°28' W 016°15'0 0.0
2018-Dec-10 08:30N 28°28' W 016°15'0 0.0
2018-Dec-10 07:58N 28°28' W 016°15'0 0.0
2018-Dec-10 07:28N 28°28' W 016°15'0 0.0
2018-Dec-10 06:58N 28°28' W 016°15'0 0.0
2018-Dec-10 06:29N 28°28' W 016°15'0 0.0
2018-Dec-10 05:59N 28°28' W 016°15'0 0.0
2018-Dec-10 05:29N 28°28' W 016°15'0 0.0
2018-Dec-10 05:00N 28°28' W 016°15'0 0.0
2018-Dec-10 04:30N 28°28' W 016°15'0 0.0
2018-Dec-10 04:00N 28°28' W 016°15'0 0.0
2018-Dec-10 02:58N 28°28' W 016°15'0 0.0
2018-Dec-10 02:28N 28°28' W 016°15'0 0.0
2018-Dec-10 01:59N 28°28' W 016°15'0 0.0
2018-Dec-10 01:29N 28°28' W 016°15'0 0.0
2018-Dec-10 00:59N 28°28' W 016°15'0 0.0
2018-Dec-10 00:30N 28°28' W 016°15'0 0.0
2018-Dec-10 00:00N 28°28' W 016°15'0 0.0
2018-Dec-09 23:30N 28°28' W 016°15'0 0.0
2018-Dec-09 23:00N 28°28' W 016°15'0 0.0
2018-Dec-09 22:28N 28°28' W 016°15'0 0.0
2018-Dec-09 21:58N 28°28' W 016°15'0 0.0
2018-Dec-09 21:29N 28°28' W 016°15'0 0.0
2018-Dec-09 20:59N 28°28' W 016°15'0 0.0
2018-Dec-09 20:29N 28°28' W 016°15'0 0.0
2018-Dec-09 20:00N 28°28' W 016°15'0 0.0
2018-Dec-09 19:30N 28°28' W 016°15'0 0.0
2018-Dec-09 19:00N 28°28' W 016°15'0 0.0
2018-Dec-09 18:30N 28°28' W 016°15'0 0.0
2018-Dec-09 17:58N 28°28' W 016°15'0 0.0
2018-Dec-09 17:28N 28°28' W 016°15'0 0.0
2018-Dec-09 16:59N 28°28' W 016°15'0 0.0
2018-Dec-09 16:29N 28°28' W 016°15'0 0.3
2018-Dec-09 16:00N 28°28' W 016°15'1 2.7
2018-Dec-09 15:31N 28°26' W 016°15'1 2.9
2018-Dec-09 15:01N 28°27' W 016°13'2 4.6
2018-Dec-09 14:31N 28°28' W 016°11'2 4.5
2018-Dec-09 14:00N 28°29' W 016°09'2 4.6
2018-Dec-09 13:30N 28°31' W 016°07'3 5.7
2018-Dec-09 13:00N 28°33' W 016°04'3 6.3
2018-Dec-09 12:30N 28°35' W 016°02'3 5.0
2018-Dec-09 11:58N 28°37' W 015°60'2 3.8
2018-Dec-09 11:30N 28°38' W 015°58'2 3.9
2018-Dec-09 10:56N 28°40' W 015°57'2 4.4
2018-Dec-09 10:24N 28°41' W 015°54'2 5.2
2018-Dec-09 10:00N 28°41' W 015°52'40 0.9
2018-Dec-07 15:35N 28°08' W 015°25'1 2.9
2018-Dec-07 15:22N 28°08' W 015°25'2 4.6
2018-Dec-07 14:58N 28°08' W 015°23'4 5.9
2018-Dec-07 14:16N 28°11' W 015°21'2 5.8
2018-Dec-07 13:59N 28°13' W 015°21'3 5.8
2018-Dec-07 13:30N 28°16' W 015°21'3 5.3
2018-Dec-07 12:56N 28°19' W 015°21'4 5.3
2018-Dec-07 12:14N 28°23' W 015°21'12 4.3
2018-Dec-07 09:30N 28°34' W 015°23'2 3.2
2018-Dec-07 08:45N 28°37' W 015°23'2 3.1
2018-Dec-07 08:06N 28°38' W 015°24'0 2.2
2018-Dec-07 08:00N 28°39' W 015°24'1 2.2
2018-Dec-07 07:25N 28°40' W 015°25'2 2.5
2018-Dec-07 06:47N 28°41' W 015°26'1 2.9
2018-Dec-07 06:30N 28°42' W 015°27'2 2.9
2018-Dec-07 05:54N 28°43' W 015°28'10 4.0
2018-Dec-07 03:19N 28°53' W 015°32'137 6.8
2018-Dec-06 07:10N 31°06' W 016°10'93 6.0
2018-Dec-05 15:40N 32°33' W 016°48'  
Track history (hours):
 
Tides and Currents Weather Stations Pressure Air Temp Water Temp Dewpoint Dewpoint Depression Visibility Wind Speed Wind Dir Waves Ship Positions

Christian Radich (Norway)

Last reported at 2018-Dec-10 23:59 UTC. Time now 2018-Dec-11 00:08 UTC.
Position N 28°28' W 016°15'.

Length 63 m; draft 5 m.

Type: Sailing vessel. MMSI: 258373000.

Date/timePositionNaut miles runAvg speedWind from/ knotsBaromVisibWave heightAir tempDewpointWater temp
2018-Dec-10 23:59N 28°28' W 016°15'0 0.0
2018-Dec-10 23:29N 28°28' W 016°15'0 0.0
2018-Dec-10 23:00N 28°28' W 016°15'0 0.0
2018-Dec-10 22:30N 28°28' W 016°15'0 0.0
2018-Dec-10 22:00N 28°28' W 016°15'0 0.0
2018-Dec-10 21:28N 28°28' W 016°15'0 0.0
2018-Dec-10 20:58N 28°28' W 016°15'0 0.0
2018-Dec-10 20:28N 28°28' W 016°15'0 0.0
2018-Dec-10 19:59N 28°28' W 016°15'0 0.0
2018-Dec-10 19:29N 28°28' W 016°15'0 0.0
2018-Dec-10 18:59N 28°28' W 016°15'0 0.0
2018-Dec-10 18:30N 28°28' W 016°15'0 0.0
2018-Dec-10 18:00N 28°28' W 016°15'0 0.0
2018-Dec-10 17:30N 28°28' W 016°15'0 0.0
2018-Dec-10 16:58N 28°28' W 016°15'0 0.0
2018-Dec-10 16:28N 28°28' W 016°15'0 0.0
2018-Dec-10 15:58N 28°28' W 016°15'0 0.0
2018-Dec-10 15:29N 28°28' W 016°15'0 0.0
2018-Dec-10 14:59N 28°28' W 016°15'0 0.0
2018-Dec-10 14:29N 28°28' W 016°15'0 0.0
2018-Dec-10 14:00N 28°28' W 016°15'0 0.0
2018-Dec-10 13:30N 28°28' W 016°15'0 0.0
2018-Dec-10 13:00N 28°28' W 016°15'0 0.0
2018-Dec-10 12:28N 28°28' W 016°15'0 0.0
2018-Dec-10 11:58N 28°28' W 016°15'0 0.0
2018-Dec-10 11:28N 28°28' W 016°15'0 0.0
2018-Dec-10 10:59N 28°28' W 016°15'0 0.0
2018-Dec-10 10:29N 28°28' W 016°15'0 0.0
2018-Dec-10 09:59N 28°28' W 016°15'0 0.0
2018-Dec-10 09:30N 28°28' W 016°15'0 0.0
2018-Dec-10 09:00N 28°28' W 016°15'0 0.0
2018-Dec-10 08:30N 28°28' W 016°15'0 0.0
2018-Dec-10 07:58N 28°28' W 016°15'0 0.0
2018-Dec-10 07:28N 28°28' W 016°15'0 0.0
2018-Dec-10 06:58N 28°28' W 016°15'0 0.0
2018-Dec-10 06:29N 28°28' W 016°15'0 0.0
2018-Dec-10 05:59N 28°28' W 016°15'0 0.0
2018-Dec-10 05:29N 28°28' W 016°15'0 0.0
2018-Dec-10 05:00N 28°28' W 016°15'0 0.0
2018-Dec-10 04:30N 28°28' W 016°15'0 0.0
2018-Dec-10 04:00N 28°28' W 016°15'0 0.0
2018-Dec-10 02:58N 28°28' W 016°15'0 0.0
2018-Dec-10 02:28N 28°28' W 016°15'0 0.0
2018-Dec-10 01:59N 28°28' W 016°15'0 0.0
2018-Dec-10 01:29N 28°28' W 016°15'0 0.0
2018-Dec-10 00:59N 28°28' W 016°15'0 0.0
2018-Dec-10 00:30N 28°28' W 016°15'0 0.0
2018-Dec-10 00:00N 28°28' W 016°15'0 0.0
2018-Dec-09 23:30N 28°28' W 016°15'0 0.0
2018-Dec-09 23:00N 28°28' W 016°15'0 0.0
2018-Dec-09 22:28N 28°28' W 016°15'0 0.0
2018-Dec-09 21:58N 28°28' W 016°15'0 0.0
2018-Dec-09 21:29N 28°28' W 016°15'0 0.0
2018-Dec-09 20:59N 28°28' W 016°15'0 0.0
2018-Dec-09 20:29N 28°28' W 016°15'0 0.0
2018-Dec-09 20:00N 28°28' W 016°15'0 0.0
2018-Dec-09 19:30N 28°28' W 016°15'0 0.0
2018-Dec-09 19:00N 28°28' W 016°15'0 0.0
2018-Dec-09 18:30N 28°28' W 016°15'0 0.0
2018-Dec-09 17:58N 28°28' W 016°15'0 0.0
2018-Dec-09 17:28N 28°28' W 016°15'0 0.0
2018-Dec-09 16:59N 28°28' W 016°15'0 0.0
2018-Dec-09 16:29N 28°28' W 016°15'0 0.3
2018-Dec-09 16:00N 28°28' W 016°15'1 2.7
2018-Dec-09 15:31N 28°26' W 016°15'1 2.9
2018-Dec-09 15:01N 28°27' W 016°13'2 4.6
2018-Dec-09 14:31N 28°28' W 016°11'2 4.5
2018-Dec-09 14:00N 28°29' W 016°09'2 4.6
2018-Dec-09 13:30N 28°31' W 016°07'3 5.7
2018-Dec-09 13:00N 28°33' W 016°04'3 6.3
2018-Dec-09 12:30N 28°35' W 016°02'3 5.0
2018-Dec-09 11:58N 28°37' W 015°60'2 3.8
2018-Dec-09 11:30N 28°38' W 015°58'2 3.9
2018-Dec-09 10:56N 28°40' W 015°57'2 4.4
2018-Dec-09 10:24N 28°41' W 015°54'2 5.2
2018-Dec-09 10:00N 28°41' W 015°52'40 0.9
2018-Dec-07 15:35N 28°08' W 015°25'1 2.9
2018-Dec-07 15:22N 28°08' W 015°25'2 4.6
2018-Dec-07 14:58N 28°08' W 015°23'4 5.9
2018-Dec-07 14:16N 28°11' W 015°21'2 5.8
2018-Dec-07 13:59N 28°13' W 015°21'3 5.8
2018-Dec-07 13:30N 28°16' W 015°21'3 5.3
2018-Dec-07 12:56N 28°19' W 015°21'4 5.3
2018-Dec-07 12:14N 28°23' W 015°21'12 4.3
2018-Dec-07 09:30N 28°34' W 015°23'2 3.2
2018-Dec-07 08:45N 28°37' W 015°23'2 3.1
2018-Dec-07 08:06N 28°38' W 015°24'0 2.2
2018-Dec-07 08:00N 28°39' W 015°24'1 2.2
2018-Dec-07 07:25N 28°40' W 015°25'2 2.5
2018-Dec-07 06:47N 28°41' W 015°26'1 2.9
2018-Dec-07 06:30N 28°42' W 015°27'2 2.9
2018-Dec-07 05:54N 28°43' W 015°28'10 4.0
2018-Dec-07 03:19N 28°53' W 015°32'137 6.8
2018-Dec-06 07:10N 31°06' W 016°10'93 6.0
2018-Dec-05 15:40N 32°33' W 016°48'  

Dump ship's entire track history